sensor_id;sensor_type;location;lat;lon;timestamp;P1;durP1;ratioP1;P2;durP2;ratioP2
54641;SDS011;40536;53.194;5.728;2024-01-30T00:01:26;76.13;;;70.30;;
54641;SDS011;40536;53.194;5.728;2024-01-30T00:03:51;78.38;;;72.68;;
54641;SDS011;40536;53.194;5.728;2024-01-30T00:06:20;75.75;;;70.00;;
54641;SDS011;40536;53.194;5.728;2024-01-30T00:08:46;76.80;;;71.28;;
54641;SDS011;40536;53.194;5.728;2024-01-30T00:11:14;69.88;;;64.65;;
54641;SDS011;40536;53.194;5.728;2024-01-30T00:13:40;74.30;;;68.70;;
54641;SDS011;40536;53.194;5.728;2024-01-30T00:16:06;81.60;;;75.72;;
54641;SDS011;40536;53.194;5.728;2024-01-30T00:18:31;78.57;;;72.57;;
54641;SDS011;40536;53.194;5.728;2024-01-30T00:20:57;88.63;;;82.43;;
54641;SDS011;40536;53.194;5.728;2024-01-30T00:23:23;110.97;;;103.72;;
54641;SDS011;40536;53.194;5.728;2024-01-30T00:25:49;121.68;;;113.97;;
54641;SDS011;40536;53.194;5.728;2024-01-30T00:28:15;139.45;;;130.80;;
54641;SDS011;40536;53.194;5.728;2024-01-30T00:30:41;155.77;;;146.52;;
54641;SDS011;40536;53.194;5.728;2024-01-30T00:33:06;138.88;;;130.40;;
54641;SDS011;40536;53.194;5.728;2024-01-30T00:35:33;146.88;;;138.15;;
54641;SDS011;40536;53.194;5.728;2024-01-30T00:37:58;135.07;;;127.00;;
54641;SDS011;40536;53.194;5.728;2024-01-30T00:40:24;133.77;;;125.40;;
54641;SDS011;40536;53.194;5.728;2024-01-30T00:42:50;129.73;;;121.95;;
54641;SDS011;40536;53.194;5.728;2024-01-30T00:45:16;143.70;;;134.77;;
54641;SDS011;40536;53.194;5.728;2024-01-30T00:47:42;153.90;;;144.57;;
54641;SDS011;40536;53.194;5.728;2024-01-30T00:50:08;146.55;;;137.32;;
54641;SDS011;40536;53.194;5.728;2024-01-30T00:52:34;163.35;;;154.02;;
54641;SDS011;40536;53.194;5.728;2024-01-30T00:55:00;149.70;;;140.93;;
54641;SDS011;40536;53.194;5.728;2024-01-30T00:57:26;138.40;;;130.23;;
54641;SDS011;40536;53.194;5.728;2024-01-30T00:59:52;130.95;;;122.50;;
54641;SDS011;40536;53.194;5.728;2024-01-30T01:02:18;113.95;;;106.47;;
54641;SDS011;40536;53.194;5.728;2024-01-30T01:04:44;111.13;;;103.63;;
54641;SDS011;40536;53.194;5.728;2024-01-30T01:07:10;128.63;;;120.57;;
54641;SDS011;40536;53.194;5.728;2024-01-30T01:09:36;143.98;;;135.15;;
54641;SDS011;40536;53.194;5.728;2024-01-30T01:12:02;154.52;;;145.52;;
54641;SDS011;40536;53.194;5.728;2024-01-30T01:14:29;168.05;;;158.35;;
54641;SDS011;40536;53.194;5.728;2024-01-30T01:16:54;187.93;;;176.85;;
54641;SDS011;40536;53.194;5.728;2024-01-30T01:19:20;194.82;;;183.95;;
54641;SDS011;40536;53.194;5.728;2024-01-30T01:21:46;189.18;;;178.70;;
54641;SDS011;40536;53.194;5.728;2024-01-30T01:24:12;184.02;;;173.35;;
54641;SDS011;40536;53.194;5.728;2024-01-30T01:26:37;185.60;;;175.40;;
54641;SDS011;40536;53.194;5.728;2024-01-30T01:29:03;190.52;;;180.00;;
54641;SDS011;40536;53.194;5.728;2024-01-30T01:31:37;197.43;;;185.90;;
54641;SDS011;40536;53.194;5.728;2024-01-30T01:34:10;184.85;;;174.55;;
54641;SDS011;40536;53.194;5.728;2024-01-30T01:36:36;181.23;;;170.98;;
54641;SDS011;40536;53.194;5.728;2024-01-30T01:39:02;188.68;;;178.05;;
54641;SDS011;40536;53.194;5.728;2024-01-30T01:41:31;203.88;;;192.75;;
54641;SDS011;40536;53.194;5.728;2024-01-30T01:43:58;183.15;;;172.57;;
54641;SDS011;40536;53.194;5.728;2024-01-30T01:46:26;190.52;;;179.45;;
54641;SDS011;40536;53.194;5.728;2024-01-30T01:48:52;194.80;;;183.68;;
54641;SDS011;40536;53.194;5.728;2024-01-30T01:51:20;214.05;;;201.80;;
54641;SDS011;40536;53.194;5.728;2024-01-30T01:53:49;208.07;;;196.30;;
54641;SDS011;40536;53.194;5.728;2024-01-30T01:56:18;220.23;;;208.65;;
54641;SDS011;40536;53.194;5.728;2024-01-30T01:58:44;220.88;;;208.88;;
54641;SDS011;40536;53.194;5.728;2024-01-30T02:01:11;213.15;;;201.05;;
54641;SDS011;40536;53.194;5.728;2024-01-30T02:03:38;206.82;;;195.10;;
54641;SDS011;40536;53.194;5.728;2024-01-30T02:06:06;139.23;;;130.18;;
54641;SDS011;40536;53.194;5.728;2024-01-30T02:08:31;165.05;;;154.45;;
54641;SDS011;40536;53.194;5.728;2024-01-30T02:10:58;223.80;;;211.00;;
54641;SDS011;40536;53.194;5.728;2024-01-30T02:13:24;222.07;;;209.23;;
54641;SDS011;40536;53.194;5.728;2024-01-30T02:15:53;201.95;;;189.80;;
54641;SDS011;40536;53.194;5.728;2024-01-30T02:18:19;198.38;;;186.73;;
54641;SDS011;40536;53.194;5.728;2024-01-30T02:20:46;207.73;;;196.10;;
54641;SDS011;40536;53.194;5.728;2024-01-30T02:23:12;193.63;;;182.00;;
54641;SDS011;40536;53.194;5.728;2024-01-30T02:25:42;194.75;;;183.40;;
54641;SDS011;40536;53.194;5.728;2024-01-30T02:28:13;187.05;;;175.88;;
54641;SDS011;40536;53.194;5.728;2024-01-30T02:30:39;164.25;;;154.02;;
54641;SDS011;40536;53.194;5.728;2024-01-30T02:33:07;134.90;;;126.13;;
54641;SDS011;40536;53.194;5.728;2024-01-30T02:35:33;129.00;;;120.45;;
54641;SDS011;40536;53.194;5.728;2024-01-30T02:37:59;123.78;;;115.43;;
54641;SDS011;40536;53.194;5.728;2024-01-30T02:40:25;114.72;;;106.93;;
54641;SDS011;40536;53.194;5.728;2024-01-30T02:42:50;124.88;;;116.00;;
54641;SDS011;40536;53.194;5.728;2024-01-30T02:45:16;121.53;;;113.47;;
54641;SDS011;40536;53.194;5.728;2024-01-30T02:47:42;124.57;;;115.93;;
54641;SDS011;40536;53.194;5.728;2024-01-30T02:50:08;118.05;;;109.80;;
54641;SDS011;40536;53.194;5.728;2024-01-30T02:52:34;120.50;;;111.93;;
54641;SDS011;40536;53.194;5.728;2024-01-30T02:54:59;114.70;;;106.32;;
54641;SDS011;40536;53.194;5.728;2024-01-30T02:57:25;112.95;;;105.15;;
54641;SDS011;40536;53.194;5.728;2024-01-30T02:59:51;107.95;;;99.88;;
54641;SDS011;40536;53.194;5.728;2024-01-30T03:02:17;101.03;;;93.53;;
54641;SDS011;40536;53.194;5.728;2024-01-30T03:04:43;103.78;;;96.65;;
54641;SDS011;40536;53.194;5.728;2024-01-30T03:07:09;99.18;;;92.10;;
54641;SDS011;40536;53.194;5.728;2024-01-30T03:09:34;95.40;;;88.38;;
54641;SDS011;40536;53.194;5.728;2024-01-30T03:12:01;98.22;;;91.20;;
54641;SDS011;40536;53.194;5.728;2024-01-30T03:14:27;106.03;;;98.60;;
54641;SDS011;40536;53.194;5.728;2024-01-30T03:16:54;99.53;;;92.55;;
54641;SDS011;40536;53.194;5.728;2024-01-30T03:19:20;99.72;;;92.55;;
54641;SDS011;40536;53.194;5.728;2024-01-30T03:21:46;100.82;;;93.75;;
54641;SDS011;40536;53.194;5.728;2024-01-30T03:24:11;105.65;;;97.97;;
54641;SDS011;40536;53.194;5.728;2024-01-30T03:26:37;108.72;;;101.03;;
54641;SDS011;40536;53.194;5.728;2024-01-30T03:29:03;108.60;;;100.93;;
54641;SDS011;40536;53.194;5.728;2024-01-30T03:31:28;103.18;;;95.72;;
54641;SDS011;40536;53.194;5.728;2024-01-30T03:33:54;101.75;;;94.68;;
54641;SDS011;40536;53.194;5.728;2024-01-30T03:36:19;106.75;;;99.20;;
54641;SDS011;40536;53.194;5.728;2024-01-30T03:38:45;105.75;;;98.45;;
54641;SDS011;40536;53.194;5.728;2024-01-30T03:41:11;103.32;;;96.20;;
54641;SDS011;40536;53.194;5.728;2024-01-30T03:43:36;101.97;;;94.53;;
54641;SDS011;40536;53.194;5.728;2024-01-30T03:46:02;102.38;;;95.32;;
54641;SDS011;40536;53.194;5.728;2024-01-30T03:48:29;108.10;;;100.53;;
54641;SDS011;40536;53.194;5.728;2024-01-30T03:50:55;103.60;;;95.60;;
54641;SDS011;40536;53.194;5.728;2024-01-30T03:53:20;102.47;;;95.25;;
54641;SDS011;40536;53.194;5.728;2024-01-30T03:55:46;102.43;;;94.85;;
54641;SDS011;40536;53.194;5.728;2024-01-30T03:58:12;120.72;;;112.72;;
54641;SDS011;40536;53.194;5.728;2024-01-30T04:00:38;112.15;;;104.35;;
54641;SDS011;40536;53.194;5.728;2024-01-30T04:03:03;120.82;;;112.57;;
54641;SDS011;40536;53.194;5.728;2024-01-30T04:05:29;119.63;;;111.65;;
54641;SDS011;40536;53.194;5.728;2024-01-30T04:07:55;118.65;;;110.97;;
54641;SDS011;40536;53.194;5.728;2024-01-30T04:10:21;113.38;;;105.80;;
54641;SDS011;40536;53.194;5.728;2024-01-30T04:12:46;119.60;;;111.72;;
54641;SDS011;40536;53.194;5.728;2024-01-30T04:15:12;116.07;;;108.20;;
54641;SDS011;40536;53.194;5.728;2024-01-30T04:17:38;117.55;;;109.38;;
54641;SDS011;40536;53.194;5.728;2024-01-30T04:20:05;115.45;;;107.80;;
54641;SDS011;40536;53.194;5.728;2024-01-30T04:22:31;129.90;;;121.65;;
54641;SDS011;40536;53.194;5.728;2024-01-30T04:24:57;119.03;;;111.57;;
54641;SDS011;40536;53.194;5.728;2024-01-30T04:27:22;124.00;;;115.57;;
54641;SDS011;40536;53.194;5.728;2024-01-30T04:29:48;126.05;;;117.80;;
54641;SDS011;40536;53.194;5.728;2024-01-30T04:32:14;119.95;;;112.03;;
54641;SDS011;40536;53.194;5.728;2024-01-30T04:34:39;124.32;;;116.28;;
54641;SDS011;40536;53.194;5.728;2024-01-30T04:37:05;127.53;;;119.43;;
54641;SDS011;40536;53.194;5.728;2024-01-30T04:39:32;124.10;;;116.07;;
54641;SDS011;40536;53.194;5.728;2024-01-30T04:41:58;114.65;;;106.90;;
54641;SDS011;40536;53.194;5.728;2024-01-30T04:44:24;120.72;;;113.05;;
54641;SDS011;40536;53.194;5.728;2024-01-30T04:46:50;121.63;;;113.65;;
54641;SDS011;40536;53.194;5.728;2024-01-30T04:49:16;121.72;;;113.43;;
54641;SDS011;40536;53.194;5.728;2024-01-30T04:51:42;117.20;;;109.72;;
54641;SDS011;40536;53.194;5.728;2024-01-30T04:54:07;117.13;;;109.53;;
54641;SDS011;40536;53.194;5.728;2024-01-30T04:56:33;120.13;;;112.63;;
54641;SDS011;40536;53.194;5.728;2024-01-30T04:59:02;119.28;;;111.55;;
54641;SDS011;40536;53.194;5.728;2024-01-30T05:01:27;118.28;;;110.80;;
54641;SDS011;40536;53.194;5.728;2024-01-30T05:03:53;117.53;;;110.22;;
54641;SDS011;40536;53.194;5.728;2024-01-30T05:06:25;119.80;;;112.30;;
54641;SDS011;40536;53.194;5.728;2024-01-30T05:08:51;107.00;;;100.25;;
54641;SDS011;40536;53.194;5.728;2024-01-30T05:11:17;109.05;;;102.22;;
54641;SDS011;40536;53.194;5.728;2024-01-30T05:13:43;118.45;;;110.95;;
54641;SDS011;40536;53.194;5.728;2024-01-30T05:16:08;112.10;;;104.55;;
54641;SDS011;40536;53.194;5.728;2024-01-30T05:18:34;112.18;;;104.70;;
54641;SDS011;40536;53.194;5.728;2024-01-30T05:21:00;111.05;;;104.00;;
54641;SDS011;40536;53.194;5.728;2024-01-30T05:23:25;101.68;;;94.65;;
54641;SDS011;40536;53.194;5.728;2024-01-30T05:25:51;110.35;;;103.20;;
54641;SDS011;40536;53.194;5.728;2024-01-30T05:28:18;112.78;;;105.75;;
54641;SDS011;40536;53.194;5.728;2024-01-30T05:30:44;117.70;;;110.43;;
54641;SDS011;40536;53.194;5.728;2024-01-30T05:33:09;126.68;;;119.03;;
54641;SDS011;40536;53.194;5.728;2024-01-30T05:35:37;116.38;;;109.18;;
54641;SDS011;40536;53.194;5.728;2024-01-30T05:38:03;121.22;;;113.68;;
54641;SDS011;40536;53.194;5.728;2024-01-30T05:40:29;130.25;;;122.38;;
54641;SDS011;40536;53.194;5.728;2024-01-30T05:42:55;127.97;;;120.30;;
54641;SDS011;40536;53.194;5.728;2024-01-30T05:45:21;129.25;;;122.03;;
54641;SDS011;40536;53.194;5.728;2024-01-30T05:47:48;121.82;;;114.07;;
54641;SDS011;40536;53.194;5.728;2024-01-30T05:50:14;133.73;;;125.78;;
54641;SDS011;40536;53.194;5.728;2024-01-30T05:52:40;122.93;;;115.22;;
54641;SDS011;40536;53.194;5.728;2024-01-30T05:55:06;124.25;;;116.93;;
54641;SDS011;40536;53.194;5.728;2024-01-30T05:57:32;122.53;;;114.72;;
54641;SDS011;40536;53.194;5.728;2024-01-30T05:59:58;126.60;;;118.80;;
54641;SDS011;40536;53.194;5.728;2024-01-30T06:02:23;113.93;;;107.13;;
54641;SDS011;40536;53.194;5.728;2024-01-30T06:04:49;119.43;;;112.13;;
54641;SDS011;40536;53.194;5.728;2024-01-30T06:07:14;110.00;;;103.20;;
54641;SDS011;40536;53.194;5.728;2024-01-30T06:09:40;114.25;;;107.30;;
54641;SDS011;40536;53.194;5.728;2024-01-30T06:12:06;114.00;;;106.78;;
54641;SDS011;40536;53.194;5.728;2024-01-30T06:14:32;109.55;;;102.85;;
54641;SDS011;40536;53.194;5.728;2024-01-30T06:16:58;111.25;;;104.45;;
54641;SDS011;40536;53.194;5.728;2024-01-30T06:19:24;104.68;;;97.78;;
54641;SDS011;40536;53.194;5.728;2024-01-30T06:21:50;100.50;;;93.93;;
54641;SDS011;40536;53.194;5.728;2024-01-30T06:24:15;103.35;;;97.00;;
54641;SDS011;40536;53.194;5.728;2024-01-30T06:26:42;104.28;;;97.38;;
54641;SDS011;40536;53.194;5.728;2024-01-30T06:29:07;109.28;;;101.97;;
54641;SDS011;40536;53.194;5.728;2024-01-30T06:31:39;112.20;;;105.35;;
54641;SDS011;40536;53.194;5.728;2024-01-30T06:34:05;113.70;;;106.68;;
54641;SDS011;40536;53.194;5.728;2024-01-30T06:36:30;117.07;;;109.97;;
54641;SDS011;40536;53.194;5.728;2024-01-30T06:38:56;113.93;;;106.90;;
54641;SDS011;40536;53.194;5.728;2024-01-30T06:41:21;110.13;;;103.28;;
54641;SDS011;40536;53.194;5.728;2024-01-30T06:43:47;107.15;;;100.00;;
54641;SDS011;40536;53.194;5.728;2024-01-30T06:46:13;100.18;;;93.93;;
54641;SDS011;40536;53.194;5.728;2024-01-30T06:48:39;96.93;;;90.53;;
54641;SDS011;40536;53.194;5.728;2024-01-30T06:51:06;92.70;;;86.72;;
54641;SDS011;40536;53.194;5.728;2024-01-30T06:53:32;90.60;;;84.53;;
54641;SDS011;40536;53.194;5.728;2024-01-30T06:55:57;83.30;;;77.63;;
54641;SDS011;40536;53.194;5.728;2024-01-30T06:58:23;86.75;;;81.05;;
54641;SDS011;40536;53.194;5.728;2024-01-30T07:00:48;90.40;;;84.38;;
54641;SDS011;40536;53.194;5.728;2024-01-30T07:03:14;86.63;;;80.32;;
54641;SDS011;40536;53.194;5.728;2024-01-30T07:05:40;75.90;;;70.38;;
54641;SDS011;40536;53.194;5.728;2024-01-30T07:08:05;87.68;;;82.15;;
54641;SDS011;40536;53.194;5.728;2024-01-30T07:10:32;82.88;;;77.35;;
54641;SDS011;40536;53.194;5.728;2024-01-30T07:12:58;91.28;;;85.25;;
54641;SDS011;40536;53.194;5.728;2024-01-30T07:15:25;88.15;;;82.25;;
54641;SDS011;40536;53.194;5.728;2024-01-30T07:17:50;86.22;;;80.35;;
54641;SDS011;40536;53.194;5.728;2024-01-30T07:20:16;92.38;;;86.38;;
54641;SDS011;40536;53.194;5.728;2024-01-30T07:22:44;90.57;;;84.82;;
54641;SDS011;40536;53.194;5.728;2024-01-30T07:25:10;92.30;;;86.15;;
54641;SDS011;40536;53.194;5.728;2024-01-30T07:27:36;100.57;;;94.43;;
54641;SDS011;40536;53.194;5.728;2024-01-30T07:30:02;95.78;;;89.57;;
54641;SDS011;40536;53.194;5.728;2024-01-30T07:32:27;89.05;;;83.20;;
54641;SDS011;40536;53.194;5.728;2024-01-30T07:34:53;95.68;;;89.28;;
54641;SDS011;40536;53.194;5.728;2024-01-30T07:37:19;90.75;;;84.53;;
54641;SDS011;40536;53.194;5.728;2024-01-30T07:39:44;104.55;;;97.68;;
54641;SDS011;40536;53.194;5.728;2024-01-30T07:42:10;111.95;;;105.20;;
54641;SDS011;40536;53.194;5.728;2024-01-30T07:44:36;109.35;;;102.90;;
54641;SDS011;40536;53.194;5.728;2024-01-30T07:47:01;111.78;;;104.97;;
54641;SDS011;40536;53.194;5.728;2024-01-30T07:49:29;138.98;;;131.27;;
54641;SDS011;40536;53.194;5.728;2024-01-30T07:51:54;139.15;;;130.82;;
54641;SDS011;40536;53.194;5.728;2024-01-30T07:54:21;149.43;;;141.20;;
54641;SDS011;40536;53.194;5.728;2024-01-30T07:56:47;177.23;;;167.80;;
54641;SDS011;40536;53.194;5.728;2024-01-30T07:59:12;187.00;;;176.85;;
54641;SDS011;40536;53.194;5.728;2024-01-30T08:01:38;185.10;;;175.20;;
54641;SDS011;40536;53.194;5.728;2024-01-30T08:04:04;180.27;;;170.52;;
54641;SDS011;40536;53.194;5.728;2024-01-30T08:06:29;174.90;;;165.38;;
54641;SDS011;40536;53.194;5.728;2024-01-30T08:08:55;160.45;;;151.68;;
54641;SDS011;40536;53.194;5.728;2024-01-30T08:11:22;154.88;;;145.82;;
54641;SDS011;40536;53.194;5.728;2024-01-30T08:13:51;157.80;;;149.13;;
54641;SDS011;40536;53.194;5.728;2024-01-30T08:16:17;122.68;;;115.53;;
54641;SDS011;40536;53.194;5.728;2024-01-30T08:18:43;119.47;;;112.20;;
54641;SDS011;40536;53.194;5.728;2024-01-30T08:21:09;109.78;;;103.32;;
54641;SDS011;40536;53.194;5.728;2024-01-30T08:23:34;104.47;;;97.85;;
54641;SDS011;40536;53.194;5.728;2024-01-30T08:26:00;107.88;;;101.10;;
54641;SDS011;40536;53.194;5.728;2024-01-30T08:28:26;88.18;;;82.47;;
54641;SDS011;40536;53.194;5.728;2024-01-30T08:30:52;83.63;;;78.05;;
54641;SDS011;40536;53.194;5.728;2024-01-30T08:33:17;86.93;;;81.22;;
54641;SDS011;40536;53.194;5.728;2024-01-30T08:35:43;82.65;;;77.00;;
54641;SDS011;40536;53.194;5.728;2024-01-30T08:38:09;81.05;;;75.35;;
54641;SDS011;40536;53.194;5.728;2024-01-30T08:40:35;81.72;;;76.32;;
54641;SDS011;40536;53.194;5.728;2024-01-30T08:43:01;86.88;;;81.28;;
54641;SDS011;40536;53.194;5.728;2024-01-30T08:45:26;86.63;;;81.15;;
54641;SDS011;40536;53.194;5.728;2024-01-30T08:47:52;78.95;;;73.72;;
54641;SDS011;40536;53.194;5.728;2024-01-30T08:50:17;69.85;;;65.18;;
54641;SDS011;40536;53.194;5.728;2024-01-30T08:52:43;73.72;;;68.93;;
54641;SDS011;40536;53.194;5.728;2024-01-30T08:55:09;75.00;;;69.85;;
54641;SDS011;40536;53.194;5.728;2024-01-30T08:57:35;71.50;;;66.43;;
54641;SDS011;40536;53.194;5.728;2024-01-30T09:00:00;67.15;;;62.20;;
54641;SDS011;40536;53.194;5.728;2024-01-30T09:02:29;64.20;;;59.75;;
54641;SDS011;40536;53.194;5.728;2024-01-30T09:04:55;67.30;;;62.50;;
54641;SDS011;40536;53.194;5.728;2024-01-30T09:07:20;68.20;;;63.45;;
54641;SDS011;40536;53.194;5.728;2024-01-30T09:09:46;66.32;;;61.70;;
54641;SDS011;40536;53.194;5.728;2024-01-30T09:12:11;66.13;;;61.35;;
54641;SDS011;40536;53.194;5.728;2024-01-30T09:14:38;76.47;;;71.00;;
54641;SDS011;40536;53.194;5.728;2024-01-30T09:17:05;65.88;;;60.70;;
54641;SDS011;40536;53.194;5.728;2024-01-30T09:19:30;64.22;;;59.88;;
54641;SDS011;40536;53.194;5.728;2024-01-30T09:21:56;91.68;;;85.93;;
54641;SDS011;40536;53.194;5.728;2024-01-30T09:24:22;68.00;;;63.15;;
54641;SDS011;40536;53.194;5.728;2024-01-30T09:26:47;67.18;;;62.42;;
54641;SDS011;40536;53.194;5.728;2024-01-30T09:29:13;64.25;;;59.70;;
54641;SDS011;40536;53.194;5.728;2024-01-30T09:31:39;65.55;;;61.00;;
54641;SDS011;40536;53.194;5.728;2024-01-30T09:34:04;72.25;;;67.22;;
54641;SDS011;40536;53.194;5.728;2024-01-30T09:36:31;67.45;;;62.72;;
54641;SDS011;40536;53.194;5.728;2024-01-30T09:38:57;68.47;;;63.63;;
54641;SDS011;40536;53.194;5.728;2024-01-30T09:41:23;141.05;;;133.45;;
54641;SDS011;40536;53.194;5.728;2024-01-30T09:43:50;67.82;;;62.97;;
54641;SDS011;40536;53.194;5.728;2024-01-30T09:46:16;67.90;;;62.45;;
54641;SDS011;40536;53.194;5.728;2024-01-30T09:48:46;70.80;;;65.38;;
54641;SDS011;40536;53.194;5.728;2024-01-30T09:51:16;69.43;;;64.38;;
54641;SDS011;40536;53.194;5.728;2024-01-30T09:53:43;85.88;;;80.30;;
54641;SDS011;40536;53.194;5.728;2024-01-30T09:56:09;84.55;;;77.80;;
54641;SDS011;40536;53.194;5.728;2024-01-30T09:58:36;62.53;;;58.03;;
54641;SDS011;40536;53.194;5.728;2024-01-30T10:01:02;104.82;;;98.47;;
54641;SDS011;40536;53.194;5.728;2024-01-30T10:03:27;59.55;;;55.83;;
54641;SDS011;40536;53.194;5.728;2024-01-30T10:05:53;98.65;;;92.78;;
54641;SDS011;40536;53.194;5.728;2024-01-30T10:08:21;74.22;;;69.78;;
54641;SDS011;40536;53.194;5.728;2024-01-30T10:10:46;71.65;;;67.30;;
54641;SDS011;40536;53.194;5.728;2024-01-30T10:13:12;57.45;;;53.25;;
54641;SDS011;40536;53.194;5.728;2024-01-30T10:15:38;54.28;;;50.67;;
54641;SDS011;40536;53.194;5.728;2024-01-30T10:18:05;66.22;;;62.13;;
54641;SDS011;40536;53.194;5.728;2024-01-30T10:20:32;112.22;;;106.18;;
54641;SDS011;40536;53.194;5.728;2024-01-30T10:22:58;52.03;;;48.63;;
54641;SDS011;40536;53.194;5.728;2024-01-30T10:25:25;79.80;;;75.13;;
54641;SDS011;40536;53.194;5.728;2024-01-30T10:27:54;95.68;;;90.18;;
54641;SDS011;40536;53.194;5.728;2024-01-30T10:30:23;70.83;;;66.67;;
54641;SDS011;40536;53.194;5.728;2024-01-30T10:32:50;60.42;;;56.63;;
54641;SDS011;40536;53.194;5.728;2024-01-30T10:35:16;73.57;;;67.95;;
54641;SDS011;40536;53.194;5.728;2024-01-30T10:37:51;58.60;;;54.60;;
54641;SDS011;40536;53.194;5.728;2024-01-30T10:40:17;97.03;;;91.75;;
54641;SDS011;40536;53.194;5.728;2024-01-30T10:42:46;59.25;;;55.55;;
54641;SDS011;40536;53.194;5.728;2024-01-30T10:45:12;69.88;;;65.43;;
54641;SDS011;40536;53.194;5.728;2024-01-30T10:47:43;52.35;;;48.65;;
54641;SDS011;40536;53.194;5.728;2024-01-30T10:50:14;57.80;;;54.22;;
54641;SDS011;40536;53.194;5.728;2024-01-30T10:52:41;49.83;;;46.72;;
54641;SDS011;40536;53.194;5.728;2024-01-30T10:55:08;56.42;;;52.58;;
54641;SDS011;40536;53.194;5.728;2024-01-30T10:57:35;47.47;;;44.70;;
54641;SDS011;40536;53.194;5.728;2024-01-30T11:00:03;54.60;;;51.35;;
54641;SDS011;40536;53.194;5.728;2024-01-30T11:02:40;54.60;;;51.15;;
54641;SDS011;40536;53.194;5.728;2024-01-30T11:05:08;114.93;;;108.32;;
54641;SDS011;40536;53.194;5.728;2024-01-30T11:07:34;53.90;;;50.95;;
54641;SDS011;40536;53.194;5.728;2024-01-30T11:10:01;88.25;;;83.53;;
54641;SDS011;40536;53.194;5.728;2024-01-30T11:12:32;104.38;;;99.13;;
54641;SDS011;40536;53.194;5.728;2024-01-30T11:15:05;66.82;;;63.35;;
54641;SDS011;40536;53.194;5.728;2024-01-30T11:20:18;60.97;;;57.85;;
54641;SDS011;40536;53.194;5.728;2024-01-30T11:22:46;75.43;;;70.47;;
54641;SDS011;40536;53.194;5.728;2024-01-30T11:25:13;69.90;;;66.38;;
54641;SDS011;40536;53.194;5.728;2024-01-30T11:27:40;61.90;;;58.80;;
54641;SDS011;40536;53.194;5.728;2024-01-30T11:30:07;53.13;;;49.78;;
54641;SDS011;40536;53.194;5.728;2024-01-30T11:32:33;61.05;;;57.60;;
54641;SDS011;40536;53.194;5.728;2024-01-30T11:34:59;63.42;;;60.10;;
54641;SDS011;40536;53.194;5.728;2024-01-30T11:37:25;42.47;;;39.45;;
54641;SDS011;40536;53.194;5.728;2024-01-30T11:39:54;39.20;;;36.95;;
54641;SDS011;40536;53.194;5.728;2024-01-30T11:42:19;41.83;;;38.92;;
54641;SDS011;40536;53.194;5.728;2024-01-30T11:44:49;84.10;;;78.78;;
54641;SDS011;40536;53.194;5.728;2024-01-30T11:47:16;51.60;;;48.47;;
54641;SDS011;40536;53.194;5.728;2024-01-30T11:49:42;45.10;;;42.28;;
54641;SDS011;40536;53.194;5.728;2024-01-30T11:52:08;46.38;;;43.72;;
54641;SDS011;40536;53.194;5.728;2024-01-30T11:54:34;86.30;;;81.70;;
54641;SDS011;40536;53.194;5.728;2024-01-30T11:57:01;49.65;;;46.92;;
54641;SDS011;40536;53.194;5.728;2024-01-30T11:59:26;60.38;;;57.17;;
54641;SDS011;40536;53.194;5.728;2024-01-30T12:01:52;49.25;;;46.55;;
54641;SDS011;40536;53.194;5.728;2024-01-30T12:04:18;64.80;;;61.38;;
54641;SDS011;40536;53.194;5.728;2024-01-30T12:06:43;58.08;;;54.80;;
54641;SDS011;40536;53.194;5.728;2024-01-30T12:09:09;54.72;;;51.65;;
54641;SDS011;40536;53.194;5.728;2024-01-30T12:11:45;49.30;;;46.50;;
54641;SDS011;40536;53.194;5.728;2024-01-30T12:14:12;61.80;;;58.42;;
54641;SDS011;40536;53.194;5.728;2024-01-30T12:16:38;94.07;;;88.85;;
54641;SDS011;40536;53.194;5.728;2024-01-30T12:19:04;78.18;;;74.28;;
54641;SDS011;40536;53.194;5.728;2024-01-30T12:21:29;68.22;;;64.80;;
54641;SDS011;40536;53.194;5.728;2024-01-30T12:23:56;73.32;;;69.30;;
54641;SDS011;40536;53.194;5.728;2024-01-30T12:26:23;56.60;;;53.55;;
54641;SDS011;40536;53.194;5.728;2024-01-30T12:28:50;77.03;;;73.25;;
54641;SDS011;40536;53.194;5.728;2024-01-30T12:31:24;76.28;;;72.18;;
54641;SDS011;40536;53.194;5.728;2024-01-30T12:33:53;69.95;;;65.97;;
54641;SDS011;40536;53.194;5.728;2024-01-30T12:36:20;57.72;;;54.25;;
54641;SDS011;40536;53.194;5.728;2024-01-30T12:38:47;51.67;;;48.92;;
54641;SDS011;40536;53.194;5.728;2024-01-30T12:41:12;50.80;;;48.20;;
54641;SDS011;40536;53.194;5.728;2024-01-30T12:43:38;123.47;;;117.80;;
54641;SDS011;40536;53.194;5.728;2024-01-30T12:46:04;78.95;;;75.20;;
54641;SDS011;40536;53.194;5.728;2024-01-30T12:48:30;67.40;;;63.92;;
54641;SDS011;40536;53.194;5.728;2024-01-30T12:50:56;46.30;;;43.65;;
54641;SDS011;40536;53.194;5.728;2024-01-30T12:53:22;45.22;;;42.85;;
54641;SDS011;40536;53.194;5.728;2024-01-30T12:55:48;91.63;;;87.15;;
54641;SDS011;40536;53.194;5.728;2024-01-30T12:58:15;42.60;;;39.78;;
54641;SDS011;40536;53.194;5.728;2024-01-30T13:00:41;54.70;;;51.38;;
54641;SDS011;40536;53.194;5.728;2024-01-30T13:03:08;52.60;;;49.88;;
54641;SDS011;40536;53.194;5.728;2024-01-30T13:05:35;47.33;;;44.75;;
54641;SDS011;40536;53.194;5.728;2024-01-30T13:08:01;63.72;;;60.40;;
54641;SDS011;40536;53.194;5.728;2024-01-30T13:10:26;55.17;;;52.05;;
54641;SDS011;40536;53.194;5.728;2024-01-30T13:12:52;55.00;;;52.22;;
54641;SDS011;40536;53.194;5.728;2024-01-30T13:15:18;53.95;;;51.35;;
54641;SDS011;40536;53.194;5.728;2024-01-30T13:17:44;59.97;;;57.10;;
54641;SDS011;40536;53.194;5.728;2024-01-30T13:20:12;66.45;;;63.28;;
54641;SDS011;40536;53.194;5.728;2024-01-30T13:22:41;152.60;;;145.27;;
54641;SDS011;40536;53.194;5.728;2024-01-30T13:25:08;71.63;;;68.05;;
54641;SDS011;40536;53.194;5.728;2024-01-30T13:27:34;61.40;;;58.33;;
54641;SDS011;40536;53.194;5.728;2024-01-30T13:30:00;61.55;;;58.75;;
54641;SDS011;40536;53.194;5.728;2024-01-30T13:32:26;64.57;;;61.45;;
54641;SDS011;40536;53.194;5.728;2024-01-30T13:34:51;60.35;;;57.42;;
54641;SDS011;40536;53.194;5.728;2024-01-30T13:37:17;99.50;;;94.93;;
54641;SDS011;40536;53.194;5.728;2024-01-30T13:39:43;81.45;;;77.22;;
54641;SDS011;40536;53.194;5.728;2024-01-30T13:42:08;83.03;;;79.00;;
54641;SDS011;40536;53.194;5.728;2024-01-30T13:44:35;64.72;;;61.13;;
54641;SDS011;40536;53.194;5.728;2024-01-30T13:47:01;101.95;;;97.45;;
54641;SDS011;40536;53.194;5.728;2024-01-30T13:49:27;124.45;;;117.13;;
54641;SDS011;40536;53.194;5.728;2024-01-30T13:51:53;70.43;;;66.82;;
54641;SDS011;40536;53.194;5.728;2024-01-30T13:54:18;78.57;;;74.40;;
54641;SDS011;40536;53.194;5.728;2024-01-30T13:56:44;81.15;;;77.25;;
54641;SDS011;40536;53.194;5.728;2024-01-30T13:59:10;91.43;;;87.07;;
54641;SDS011;40536;53.194;5.728;2024-01-30T14:01:35;83.35;;;79.45;;
54641;SDS011;40536;53.194;5.728;2024-01-30T14:04:01;99.45;;;94.78;;
54641;SDS011;40536;53.194;5.728;2024-01-30T14:06:27;100.68;;;95.70;;